sensor_id;sensor_type;location;lat;lon;timestamp;P1;durP1;ratioP1;P2;durP2;ratioP2
3735;SDS011;1883;48.202;16.310;2022-10-15T01:00:34;179.17;;;56.87;;
3735;SDS011;1883;48.202;16.310;2022-10-15T01:03:02;170.60;;;55.60;;
3735;SDS011;1883;48.202;16.310;2022-10-15T01:05:29;176.83;;;56.20;;
3735;SDS011;1883;48.202;16.310;2022-10-15T01:07:57;172.23;;;52.77;;
3735;SDS011;1883;48.202;16.310;2022-10-15T01:10:24;196.63;;;57.83;;
3735;SDS011;1883;48.202;16.310;2022-10-15T01:31:53;195.80;;;59.70;;
3735;SDS011;1883;48.202;16.310;2022-10-15T02:08:04;205.63;;;62.17;;
3735;SDS011;1883;48.202;16.310;2022-10-15T02:10:39;207.57;;;63.07;;
3735;SDS011;1883;48.202;16.310;2022-10-15T02:13:13;207.87;;;62.73;;
3735;SDS011;1883;48.202;16.310;2022-10-15T02:18:27;199.37;;;60.10;;
3735;SDS011;1883;48.202;16.310;2022-10-15T02:21:00;176.60;;;58.03;;
3735;SDS011;1883;48.202;16.310;2022-10-15T02:23:34;178.97;;;58.67;;
3735;SDS011;1883;48.202;16.310;2022-10-15T02:26:07;189.87;;;61.63;;
3735;SDS011;1883;48.202;16.310;2022-10-15T02:28:37;185.27;;;55.87;;
3735;SDS011;1883;48.202;16.310;2022-10-15T02:31:08;172.67;;;58.90;;
3735;SDS011;1883;48.202;16.310;2022-10-15T02:33:39;189.40;;;62.33;;
3735;SDS011;1883;48.202;16.310;2022-10-15T02:36:07;190.70;;;62.10;;
3735;SDS011;1883;48.202;16.310;2022-10-15T02:38:36;190.47;;;61.63;;
3735;SDS011;1883;48.202;16.310;2022-10-15T02:41:05;185.17;;;59.03;;
3735;SDS011;1883;48.202;16.310;2022-10-15T02:43:34;193.63;;;61.23;;
3735;SDS011;1883;48.202;16.310;2022-10-15T02:46:02;175.40;;;59.83;;
3735;SDS011;1883;48.202;16.310;2022-10-15T02:48:30;171.77;;;57.60;;
3735;SDS011;1883;48.202;16.310;2022-10-15T02:50:57;170.70;;;55.67;;
3735;SDS011;1883;48.202;16.310;2022-10-15T02:53:24;177.67;;;54.83;;
3735;SDS011;1883;48.202;16.310;2022-10-15T02:55:53;167.50;;;57.80;;
3735;SDS011;1883;48.202;16.310;2022-10-15T02:58:20;181.03;;;58.80;;
3735;SDS011;1883;48.202;16.310;2022-10-15T03:00:47;169.93;;;56.00;;
3735;SDS011;1883;48.202;16.310;2022-10-15T03:03:14;182.53;;;61.27;;
3735;SDS011;1883;48.202;16.310;2022-10-15T03:05:41;199.57;;;61.57;;
3735;SDS011;1883;48.202;16.310;2022-10-15T03:08:09;195.53;;;60.53;;
3735;SDS011;1883;48.202;16.310;2022-10-15T03:10:36;182.23;;;57.27;;
3735;SDS011;1883;48.202;16.310;2022-10-15T03:13:05;202.20;;;60.70;;
3735;SDS011;1883;48.202;16.310;2022-10-15T03:15:32;204.17;;;63.27;;
3735;SDS011;1883;48.202;16.310;2022-10-15T03:17:59;213.37;;;60.40;;
3735;SDS011;1883;48.202;16.310;2022-10-15T03:23:01;205.70;;;64.60;;
3735;SDS011;1883;48.202;16.310;2022-10-15T03:31:30;195.50;;;60.00;;
3735;SDS011;1883;48.202;16.310;2022-10-15T03:33:57;178.97;;;59.57;;
3735;SDS011;1883;48.202;16.310;2022-10-15T03:36:24;170.77;;;56.43;;
3735;SDS011;1883;48.202;16.310;2022-10-15T03:38:51;186.40;;;61.27;;
3735;SDS011;1883;48.202;16.310;2022-10-15T03:41:18;181.27;;;58.03;;
3735;SDS011;1883;48.202;16.310;2022-10-15T03:43:45;178.87;;;58.40;;
3735;SDS011;1883;48.202;16.310;2022-10-15T03:46:12;178.23;;;56.63;;
3735;SDS011;1883;48.202;16.310;2022-10-15T03:48:41;179.50;;;58.33;;
3735;SDS011;1883;48.202;16.310;2022-10-15T03:51:08;185.43;;;57.60;;
3735;SDS011;1883;48.202;16.310;2022-10-15T03:53:35;175.43;;;56.90;;
3735;SDS011;1883;48.202;16.310;2022-10-15T03:56:02;176.10;;;57.97;;
3735;SDS011;1883;48.202;16.310;2022-10-15T03:58:29;196.07;;;57.73;;
3735;SDS011;1883;48.202;16.310;2022-10-15T12:17:45;87.30;;;38.53;;
3735;SDS011;1883;48.202;16.310;2022-10-15T12:20:28;93.37;;;40.50;;
3735;SDS011;1883;48.202;16.310;2022-10-15T12:23:22;104.03;;;42.67;;
3735;SDS011;1883;48.202;16.310;2022-10-15T12:25:52;108.40;;;47.70;;
3735;SDS011;1883;48.202;16.310;2022-10-15T12:28:24;100.90;;;42.80;;
3735;SDS011;1883;48.202;16.310;2022-10-15T12:31:10;111.67;;;45.40;;
3735;SDS011;1883;48.202;16.310;2022-10-15T12:33:44;102.40;;;43.27;;
3735;SDS011;1883;48.202;16.310;2022-10-15T12:36:28;113.20;;;46.83;;
3735;SDS011;1883;48.202;16.310;2022-10-15T12:39:20;106.73;;;46.67;;
3735;SDS011;1883;48.202;16.310;2022-10-15T12:42:03;104.67;;;46.30;;
3735;SDS011;1883;48.202;16.310;2022-10-15T12:44:55;118.30;;;47.60;;
3735;SDS011;1883;48.202;16.310;2022-10-15T12:47:47;116.23;;;46.53;;
